createdAt,value
2017-05-26T19:24:43.299Z,232
2017-05-26T19:25:43.914Z,220
2017-05-26T19:26:43.286Z,204
2017-05-26T19:27:43.588Z,188
2017-05-26T19:28:43.904Z,176
2017-05-26T19:29:43.893Z,164
2017-05-26T19:30:43.255Z,152
2017-05-26T19:31:43.571Z,140
2017-05-26T19:32:43.249Z,132
2017-05-26T19:33:43.305Z,120
2017-05-26T19:34:43.234Z,116
2017-05-26T19:35:43.222Z,104
2017-05-26T19:36:43.531Z,96
2017-05-26T19:37:43.296Z,88
2017-05-26T19:38:43.521Z,80
2017-05-26T19:39:43.836Z,72
2017-05-26T19:40:43.194Z,68
2017-05-26T19:41:43.558Z,60
2017-05-26T19:42:43.505Z,52
2017-05-26T19:43:43.506Z,48
2017-05-26T19:44:43.813Z,44
2017-05-26T19:45:43.489Z,40
2017-05-26T19:46:43.479Z,32
2017-05-26T19:47:43.476Z,32
2017-05-26T19:48:43.040Z,28
2017-05-26T19:49:43.143Z,24
2017-05-26T19:50:43.134Z,20
2017-05-26T19:51:43.184Z,20
2017-05-26T19:52:43.796Z,16
2017-05-26T19:53:43.769Z,16
2017-05-26T19:54:43.114Z,12
2017-05-26T19:55:43.108Z,12
2017-05-26T19:56:43.745Z,8
2017-05-26T19:57:43.730Z,8
2017-05-26T19:58:43.477Z,8
2017-05-26T19:59:43.391Z,8
2017-05-26T20:00:43.079Z,4
2017-05-26T20:01:43.436Z,8
2017-05-26T20:02:43.716Z,4
2017-05-26T20:03:43.376Z,4
2017-05-26T20:04:43.383Z,4
2017-05-26T20:05:43.564Z,0
2017-05-26T20:07:01.417Z,4
2017-05-26T20:07:43.347Z,4
2017-05-26T20:08:43.343Z,0
2017-05-26T20:09:42.709Z,4
2017-05-26T20:10:43.335Z,4
2017-05-26T20:11:43.640Z,0
2017-05-26T20:12:42.685Z,0
2017-05-26T20:13:42.990Z,0
2017-05-26T20:14:42.987Z,0
2017-05-26T20:15:43.292Z,0
2017-05-26T20:16:43.292Z,0
2017-05-26T20:17:43.021Z,0
2017-05-26T20:18:43.274Z,0
2017-05-26T20:19:42.956Z,0
2017-05-26T20:20:42.964Z,0
2017-05-26T20:21:42.943Z,0
2017-05-26T20:22:43.296Z,0
2017-05-26T20:23:43.247Z,0
2017-05-26T20:24:43.236Z,0
2017-05-26T20:25:42.595Z,0
2017-05-26T20:26:43.535Z,0
2017-05-26T20:27:43.529Z,0
2017-05-26T20:28:42.895Z,0
2017-05-26T20:29:43.534Z,0
2017-05-26T20:30:43.509Z,0
2017-05-26T20:31:43.182Z,0
2017-05-26T20:32:42.607Z,0
2017-05-26T20:33:43.170Z,0
2017-05-26T20:34:43.166Z,0
2017-05-26T20:35:43.167Z,0
2017-05-26T20:36:42.835Z,0
2017-05-26T20:37:42.834Z,0
2017-05-26T20:38:43.130Z,0
2017-05-26T20:39:43.123Z,0
2017-05-26T20:40:43.113Z,0
2017-05-26T20:41:43.114Z,0
2017-05-26T20:42:42.843Z,0
2017-05-26T20:43:43.100Z,0
2017-05-26T20:44:43.095Z,0
2017-05-26T20:45:43.410Z,0
2017-05-26T20:46:43.085Z,0
2017-05-26T20:47:43.067Z,0
2017-05-26T20:48:43.411Z,0
2017-05-26T20:49:43.395Z,0
2017-05-26T20:50:43.045Z,0
2017-05-26T20:51:43.565Z,0
2017-05-26T20:52:43.039Z,0
2017-05-26T20:53:43.043Z,0
2017-05-26T20:54:43.349Z,0
2017-05-26T20:55:43.006Z,0
2017-05-26T20:56:43.017Z,0
2017-05-26T20:57:43.324Z,0
2017-05-26T20:58:42.990Z,0
2017-05-26T20:59:42.977Z,0
2017-05-26T21:00:42.662Z,0
2017-05-26T21:01:43.271Z,0
2017-05-26T21:02:43.342Z,0
2017-05-26T21:03:43.262Z,0
2017-05-26T21:04:42.838Z,0
2017-05-26T21:05:42.624Z,0
2017-05-26T21:06:42.616Z,0
2017-05-26T21:07:42.939Z,0
2017-05-26T21:08:42.280Z,0
2017-05-26T21:09:42.605Z,0
2017-05-26T21:10:42.892Z,0
2017-05-26T21:11:42.255Z,0
2017-05-26T21:12:42.569Z,0
2017-05-26T21:13:42.934Z,0
2017-05-26T21:14:42.239Z,0
2017-05-26T21:15:43.172Z,0
2017-05-26T21:16:42.533Z,0
2017-05-26T21:17:42.532Z,0
2017-05-26T21:18:42.511Z,0
2017-05-26T21:19:42.522Z,0
2017-05-26T21:20:42.506Z,0
2017-05-26T21:21:43.119Z,0
2017-05-26T21:22:42.793Z,0
2017-05-26T21:23:42.789Z,0
2017-05-26T21:24:42.467Z,0
2017-05-26T21:25:42.775Z,0
2017-05-26T21:26:43.102Z,0
2017-05-26T21:27:42.165Z,0
2017-05-26T21:28:42.451Z,0
2017-05-26T21:29:42.498Z,0
2017-05-26T21:30:42.432Z,0
2017-05-26T21:31:42.738Z,0
2017-05-26T21:32:42.725Z,0
2017-05-26T21:33:42.484Z,0
2017-05-26T21:34:42.390Z,0
2017-05-26T21:35:42.396Z,0
2017-05-26T21:36:42.374Z,0
2017-05-26T21:37:42.384Z,0
2017-05-26T21:38:42.417Z,0
2017-05-26T21:39:42.350Z,0
2017-05-26T21:40:42.971Z,0
2017-05-26T21:41:42.714Z,0
2017-05-26T21:42:42.323Z,0
2017-05-26T21:43:42.333Z,0
2017-05-26T21:44:42.939Z,0
2017-05-26T21:45:42.615Z,0
2017-05-26T21:46:42.600Z,0
2017-05-26T21:47:42.628Z,0
2017-05-26T21:48:42.295Z,0
2017-05-26T21:49:42.904Z,0
2017-05-26T21:50:41.948Z,0
2017-05-26T21:51:42.599Z,0
2017-05-26T21:52:42.559Z,0
2017-05-26T21:53:42.237Z,0
2017-05-26T21:54:42.539Z,0
2017-05-26T21:55:41.902Z,0
2017-05-26T21:56:42.523Z,0
2017-05-26T21:57:42.203Z,0
2017-05-26T21:58:42.559Z,0
2017-05-26T21:59:42.499Z,0
2017-05-26T22:00:42.232Z,0
2017-05-26T22:01:42.170Z,0
2017-05-26T22:02:42.183Z,0
2017-05-26T22:03:42.522Z,0
2017-05-26T22:04:42.459Z,0
2017-05-26T22:05:42.456Z,0
2017-05-26T22:06:42.760Z,0
2017-05-26T22:07:42.644Z,0
2017-05-26T22:08:42.178Z,0
2017-05-26T22:09:42.754Z,0
2017-05-26T22:10:42.718Z,0
2017-05-26T22:11:42.085Z,0
2017-05-26T22:12:42.396Z,0
2017-05-26T22:13:42.390Z,0
2017-05-26T22:14:42.376Z,0
2017-05-26T22:15:42.361Z,0
2017-05-26T22:16:42.371Z,0
2017-05-26T22:17:42.667Z,0
2017-05-26T22:18:42.023Z,0
2017-05-26T22:19:42.330Z,0
2017-05-26T22:20:42.007Z,0
2017-05-26T22:21:42.318Z,0
2017-05-26T22:22:42.306Z,0
2017-05-26T22:23:41.994Z,0
2017-05-26T22:24:41.984Z,0
2017-05-26T22:25:42.281Z,0
2017-05-26T22:26:42.585Z,0
2017-05-26T22:27:42.269Z,0
2017-05-26T22:28:41.948Z,0
2017-05-26T22:29:41.938Z,0
2017-05-26T22:30:42.370Z,0
2017-05-26T22:31:42.235Z,0
2017-05-26T22:32:42.549Z,0
2017-05-26T22:33:42.608Z,0
2017-05-26T22:34:41.896Z,0
2017-05-26T22:35:41.897Z,0
2017-05-26T22:36:42.204Z,0
2017-05-26T22:37:42.235Z,0
2017-05-26T22:38:42.180Z,0
2017-05-26T22:39:41.853Z,0
2017-05-26T22:40:42.481Z,0
2017-05-26T22:41:42.143Z,0
2017-05-26T22:42:42.454Z,0
2017-05-26T22:44:42.118Z,0
2017-05-26T22:45:41.795Z,0
2017-05-26T22:46:42.102Z,0
2017-05-26T22:47:42.410Z,0
2017-05-26T22:48:42.398Z,0
2017-05-26T22:49:42.080Z,0
2017-05-26T22:50:42.632Z,0
2017-05-26T22:51:42.372Z,0
2017-05-26T22:52:41.745Z,0
2017-05-26T22:53:42.078Z,0
2017-05-26T22:54:42.232Z,0
2017-05-26T22:55:42.027Z,0
2017-05-26T22:56:42.022Z,0
2017-05-26T22:57:41.710Z,0
2017-05-26T22:58:42.341Z,0
2017-05-26T22:59:41.675Z,0
2017-05-26T23:00:41.664Z,0
2017-05-26T23:01:42.276Z,0
2017-05-26T23:02:41.965Z,0
2017-05-26T23:03:41.953Z,0
2017-05-26T23:04:42.266Z,0
2017-05-26T23:05:41.936Z,0
2017-05-26T23:06:41.927Z,0
2017-05-26T23:07:41.604Z,0
2017-05-26T23:08:41.590Z,0
2017-05-26T23:09:41.588Z,0
2017-05-26T23:10:41.253Z,0
2017-05-26T23:11:41.247Z,0
2017-05-26T23:12:42.194Z,0
2017-05-26T23:13:41.865Z,0
2017-05-26T23:14:41.900Z,0
2017-05-26T23:15:41.851Z,0
2017-05-26T23:16:41.837Z,0
2017-05-26T23:17:42.146Z,0
2017-05-26T23:18:41.816Z,0
2017-05-26T23:19:41.806Z,0
2017-05-26T23:20:41.833Z,0
2017-05-26T23:21:41.791Z,0
2017-05-26T23:22:41.781Z,0
2017-05-26T23:23:41.772Z,0
2017-05-26T23:24:41.756Z,0
2017-05-26T23:25:41.436Z,0
2017-05-26T23:26:42.051Z,0
2017-05-26T23:27:41.426Z,0
2017-05-26T23:28:41.729Z,0
2017-05-26T23:29:41.772Z,0
2017-05-26T23:30:42.026Z,0
2017-05-26T23:31:41.702Z,0
2017-05-26T23:32:42.014Z,0
2017-05-26T23:33:41.987Z,0
2017-05-26T23:34:41.716Z,0
2017-05-26T23:35:41.979Z,0
2017-05-26T23:36:41.651Z,0
2017-05-26T23:37:41.011Z,0
2017-05-26T23:38:41.632Z,0
2017-05-26T23:39:41.985Z,0
2017-05-26T23:40:40.990Z,0
2017-05-26T23:41:41.602Z,0
2017-05-26T23:42:41.279Z,0
2017-05-26T23:43:41.316Z,0
2017-05-26T23:44:41.309Z,0
2017-05-26T23:45:41.576Z,0
2017-05-26T23:46:40.928Z,0
2017-05-26T23:47:41.549Z,0
2017-05-26T23:48:41.555Z,0
2017-05-26T23:49:41.230Z,0
2017-05-26T23:50:41.210Z,0
2017-05-26T23:51:41.523Z,0
2017-05-26T23:52:41.538Z,0
2017-05-26T23:53:41.496Z,0
2017-05-26T23:54:41.794Z,0
2017-05-26T23:55:41.159Z,0
2017-05-26T23:56:41.466Z,0
2017-05-26T23:57:41.148Z,0
2017-05-26T23:58:41.134Z,0
2017-05-26T23:59:41.439Z,0
